createdAt,value
2018-12-07T00:01:43.702Z,0.34
2018-12-07T00:04:19.845Z,0.33
2018-12-07T00:06:51.857Z,0.43
2018-12-07T00:09:24.120Z,0.42
2018-12-07T00:12:00.113Z,0.43
2018-12-07T00:14:32.188Z,0.34
2018-12-07T00:17:08.351Z,0.44
2018-12-07T00:19:47.957Z,0.41
2018-12-07T00:22:18.641Z,0.32
2018-12-07T00:24:55.692Z,0.41
2018-12-07T00:27:27.768Z,0.39
2018-12-07T00:29:59.830Z,0.37
2018-12-07T00:32:35.956Z,0.25
2018-12-07T00:35:06.358Z,0.21
2018-12-07T00:37:39.291Z,0.11
2018-12-07T00:40:10.143Z,0.07
2018-12-07T00:42:42.471Z,0.06
2018-12-07T00:45:12.879Z,0.12
2018-12-07T00:47:45.042Z,0.16
2018-12-07T00:50:15.167Z,0.08
2018-12-07T00:52:51.584Z,0.14
2018-12-07T00:55:39.340Z,0.16
2018-12-07T00:58:16.064Z,0.16
2018-12-07T01:00:48.141Z,0.17
2018-12-07T01:03:24.432Z,0.21
2018-12-07T01:05:56.511Z,0.20
2018-12-07T01:08:29.492Z,0.16
2018-12-07T01:11:05.713Z,0.19
2018-12-07T01:13:37.839Z,0.23
2018-12-07T01:16:10.668Z,0.25
2018-12-07T01:18:47.678Z,0.32
2018-12-07T01:21:19.793Z,0.30
2018-12-07T01:23:52.709Z,0.37
2018-12-07T01:26:25.157Z,0.36
2018-12-07T01:28:55.507Z,0.39
2018-12-07T01:31:31.502Z,0.33
2018-12-07T01:34:04.113Z,0.31
2018-12-07T01:36:40.377Z,0.24
2018-12-07T01:39:13.417Z,0.45
2018-12-07T01:41:45.477Z,0.35
2018-12-07T01:44:22.615Z,0.41
2018-12-07T01:46:55.665Z,0.36
2018-12-07T01:49:31.970Z,0.28
2018-12-07T01:52:08.072Z,0.29
2018-12-07T01:54:44.288Z,0.44
2018-12-07T01:57:20.510Z,0.46
2018-12-07T01:59:53.417Z,0.47
2018-12-07T02:02:24.816Z,0.45
2018-12-07T02:04:57.181Z,0.52
2018-12-07T02:07:34.792Z,0.52
2018-12-07T02:10:08.147Z,0.55
2018-12-07T02:12:40.599Z,0.55
2018-12-07T02:15:16.892Z,0.56
2018-12-07T02:17:48.877Z,0.58
2018-12-07T02:20:21.853Z,0.59
2018-12-07T02:22:54.312Z,0.65
2018-12-07T02:25:24.412Z,0.74
2018-12-07T02:28:00.511Z,0.99
2018-12-07T02:30:32.724Z,0.83
2018-12-07T02:33:08.975Z,0.77
2018-12-07T02:35:45.042Z,0.72
2018-12-07T02:38:22.343Z,0.66
2018-12-07T02:40:58.575Z,0.63
2018-12-07T02:43:30.628Z,0.58
2018-12-07T02:46:01.047Z,0.56
2018-12-07T02:48:33.820Z,0.57
2018-12-07T02:51:06.149Z,0.71
2018-12-07T02:53:39.087Z,0.66
2018-12-07T02:56:11.155Z,0.71
2018-12-07T02:58:41.419Z,0.68
2018-12-07T03:01:18.491Z,0.68
2018-12-07T03:03:55.626Z,0.72
2018-12-07T03:06:35.909Z,0.76
2018-12-07T03:09:08.876Z,0.77
2018-12-07T03:11:46.090Z,0.64
2018-12-07T03:14:22.307Z,0.67
2018-12-07T03:16:59.182Z,0.69
2018-12-07T03:19:35.483Z,0.71
2018-12-07T03:22:07.515Z,0.66
2018-12-07T03:24:43.978Z,0.66
2018-12-07T03:27:16.319Z,0.71
2018-12-07T03:29:49.299Z,0.81
2018-12-07T03:32:21.855Z,0.98
2018-12-07T03:34:51.946Z,0.92
2018-12-07T03:37:28.879Z,0.92
2018-12-07T03:40:01.191Z,0.94
2018-12-07T03:42:38.380Z,0.94
2018-12-07T03:45:07.909Z,0.88
2018-12-07T03:47:38.687Z,0.91
2018-12-07T03:50:10.768Z,0.87
2018-12-07T03:52:43.133Z,0.80
2018-12-07T03:55:14.037Z,0.86
2018-12-07T03:57:46.473Z,0.82
2018-12-07T04:00:18.837Z,0.75
2018-12-07T04:02:55.235Z,0.82
2018-12-07T04:05:27.306Z,0.95
2018-12-07T04:08:00.244Z,0.97
2018-12-07T04:10:33.292Z,0.98
2018-12-07T04:13:09.336Z,0.96
2018-12-07T04:15:39.670Z,1.00
2018-12-07T04:18:15.692Z,0.98
2018-12-07T04:20:49.700Z,1.19
2018-12-07T04:23:25.773Z,1.44
2018-12-07T04:26:01.961Z,1.65
2018-12-07T04:28:40.505Z,1.57
2018-12-07T04:31:12.707Z,1.38
2018-12-07T04:33:49.047Z,1.35
2018-12-07T04:36:25.134Z,1.36
2018-12-07T04:38:55.336Z,1.35
2018-12-07T04:41:27.426Z,1.27
2018-12-07T04:43:58.044Z,1.23
2018-12-07T04:46:31.963Z,1.23
2018-12-07T04:49:08.176Z,1.10
2018-12-07T04:51:40.910Z,1.07
2018-12-07T04:54:13.129Z,1.14
2018-12-07T04:56:43.743Z,1.16
2018-12-07T04:59:16.679Z,1.23
2018-12-07T05:01:49.188Z,1.46
2018-12-07T05:04:21.377Z,1.63
2018-12-07T05:06:53.660Z,1.46
2018-12-07T05:09:25.924Z,1.38
2018-12-07T05:11:58.605Z,1.33
2018-12-07T05:14:37.614Z,1.26
2018-12-07T05:17:07.125Z,1.33
2018-12-07T05:19:39.914Z,1.52
2018-12-07T05:22:16.975Z,1.54
2018-12-07T05:24:49.023Z,1.52
2018-12-07T05:27:25.300Z,1.56
2018-12-07T05:29:58.140Z,1.47
2018-12-07T05:32:30.430Z,1.47
2018-12-07T05:35:02.573Z,1.45
2018-12-07T05:42:42.839Z,1.55
2018-12-07T05:45:13.350Z,1.39
2018-12-07T06:10:19.596Z,1.48
2018-12-07T06:12:53.632Z,1.39
2018-12-07T06:15:30.439Z,1.43
2018-12-07T06:18:07.000Z,1.45
2018-12-07T06:20:37.824Z,1.47
2018-12-07T06:23:09.875Z,1.49
2018-12-07T06:25:46.983Z,1.59
2018-12-07T06:28:17.078Z,1.64
2018-12-07T06:30:49.487Z,1.54
2018-12-07T06:33:21.532Z,1.50
2018-12-07T06:35:54.419Z,1.50
2018-12-07T06:38:26.624Z,1.50
2018-12-07T06:40:58.796Z,1.50
2018-12-07T06:43:30.988Z,1.58
2018-12-07T06:46:03.058Z,1.64
2018-12-07T06:48:38.939Z,1.63
2018-12-07T06:51:10.910Z,1.70
2018-12-07T06:53:42.873Z,1.72
2018-12-07T06:56:12.971Z,1.71
2018-12-07T06:58:43.792Z,1.74
2018-12-07T07:01:19.902Z,1.77
2018-12-07T07:03:56.228Z,1.79
2018-12-07T07:06:29.073Z,1.84
2018-12-07T07:09:01.438Z,1.81
2018-12-07T07:11:35.826Z,1.77
2018-12-07T07:14:12.263Z,1.84
2018-12-07T07:16:44.738Z,1.93
2018-12-07T07:19:17.853Z,1.97
2018-12-07T07:21:49.930Z,2.03
2018-12-07T07:24:22.473Z,2.06
2018-12-07T07:26:51.895Z,2.05
2018-12-07T07:29:22.594Z,2.03
2018-12-07T07:31:54.901Z,2.03
2018-12-07T07:34:27.042Z,1.99
2018-12-07T07:36:59.938Z,2.02
2018-12-07T07:39:32.428Z,2.09
2018-12-07T07:42:04.675Z,2.14
2018-12-07T07:44:34.509Z,2.18
2018-12-07T07:47:06.648Z,2.25
2018-12-07T07:49:38.537Z,2.35
2018-12-07T07:52:15.447Z,2.65
2018-12-07T07:54:47.690Z,2.61
2018-12-07T07:57:19.926Z,2.60
2018-12-07T07:59:49.906Z,2.89
2018-12-07T08:02:22.676Z,2.92
2018-12-07T08:04:54.635Z,2.98
2018-12-07T08:07:26.879Z,2.93
2018-12-07T08:09:58.734Z,3.02
2018-12-07T08:12:31.398Z,2.96
2018-12-07T08:27:36.422Z,3.13
2018-12-07T08:30:09.900Z,3.24
2018-12-07T08:32:42.804Z,3.33
2018-12-07T08:35:13.629Z,3.34
2018-12-07T08:37:50.182Z,3.40
2018-12-07T08:40:22.324Z,3.43
2018-12-07T08:42:53.269Z,3.53
2018-12-07T08:45:25.489Z,3.59
2018-12-07T08:48:02.112Z,3.70
2018-12-07T08:50:32.811Z,3.80
2018-12-07T08:53:05.696Z,3.83
2018-12-07T08:55:36.047Z,3.75
2018-12-07T08:58:06.261Z,3.85
2018-12-07T09:00:42.472Z,3.95
2018-12-07T09:03:14.505Z,3.91
2018-12-07T09:05:46.811Z,3.96
2018-12-07T09:08:22.988Z,4.05
2018-12-07T09:10:59.772Z,4.08
2018-12-07T09:13:30.408Z,4.12
2018-12-07T09:16:02.523Z,4.19
2018-12-07T09:18:32.799Z,4.15
2018-12-07T09:21:04.986Z,4.29
2018-12-07T09:23:41.212Z,4.36
2018-12-07T09:26:13.302Z,4.41
2018-12-07T09:28:46.301Z,4.45
2018-12-07T09:31:18.419Z,4.38
2018-12-07T09:33:54.504Z,4.40
2018-12-07T09:36:30.734Z,4.51
2018-12-07T09:39:07.057Z,4.53
2018-12-07T09:41:40.868Z,4.54
2018-12-07T09:44:13.073Z,4.58
2018-12-07T09:46:43.357Z,4.63
2018-12-07T09:49:16.249Z,4.71
2018-12-07T09:51:49.077Z,4.82
2018-12-07T09:54:21.337Z,4.91
2018-12-07T09:56:58.225Z,4.96
2018-12-07T09:59:34.489Z,5.00
2018-12-07T10:02:06.980Z,5.18
2018-12-07T10:04:39.244Z,5.22
2018-12-07T10:07:09.419Z,5.48
2018-12-07T10:09:41.468Z,5.63
2018-12-07T10:12:17.714Z,5.68
2018-12-07T10:14:49.898Z,5.79
2018-12-07T10:17:25.957Z,5.94
2018-12-07T10:19:58.147Z,5.99
2018-12-07T10:22:30.409Z,6.30
2018-12-07T10:25:02.784Z,6.39
2018-12-07T10:27:35.802Z,6.33
2018-12-07T10:45:19.340Z,7.30
2018-12-07T10:47:52.087Z,7.43
2018-12-07T10:50:28.468Z,7.73
2018-12-07T10:53:00.880Z,7.85
2018-12-07T10:55:31.823Z,8.08
2018-12-07T10:58:03.925Z,7.98
2018-12-07T11:00:45.503Z,8.10
2018-12-07T11:03:23.725Z,8.36
2018-12-07T11:06:02.134Z,8.46
2018-12-07T11:08:40.267Z,8.98
2018-12-07T11:11:17.950Z,8.77
2018-12-07T11:13:56.124Z,8.60
2018-12-07T11:16:34.086Z,8.59
2018-12-07T11:19:10.521Z,8.13
2018-12-07T11:21:52.823Z,8.32
2018-12-07T11:24:30.591Z,8.45
2018-12-07T11:27:13.569Z,9.04
2018-12-07T11:29:55.245Z,9.38
2018-12-07T11:32:34.658Z,9.39
2018-12-07T11:35:09.364Z,9.51
2018-12-07T11:37:43.028Z,9.38
2018-12-07T11:40:15.920Z,9.06
2018-12-07T11:42:51.028Z,8.92
2018-12-07T12:00:25.057Z,8.76
2018-12-07T12:02:57.316Z,8.81
2018-12-07T12:05:29.361Z,8.75
2018-12-07T12:08:01.689Z,8.85
2018-12-07T12:10:34.720Z,8.97
2018-12-07T12:13:10.792Z,8.95
2018-12-07T12:15:43.672Z,9.09
2018-12-07T12:18:16.657Z,9.16
2018-12-07T12:20:52.951Z,9.28
2018-12-07T12:23:25.391Z,9.39
2018-12-07T12:25:58.916Z,9.31
2018-12-07T12:28:35.072Z,9.37
2018-12-07T12:31:07.241Z,9.46
2018-12-07T12:33:39.486Z,9.69
2018-12-07T12:36:17.134Z,10.20
2018-12-07T12:38:49.800Z,10.31
2018-12-07T12:41:25.828Z,10.57
2018-12-07T12:43:55.856Z,10.90
2018-12-07T12:46:33.221Z,10.43
2018-12-07T12:49:05.631Z,10.61
2018-12-07T12:51:38.293Z,10.34
2018-12-07T12:54:10.929Z,10.49
2018-12-07T12:56:42.968Z,10.25
2018-12-07T13:01:46.197Z,10.22
2018-12-07T13:04:17.141Z,10.40
2018-12-07T13:06:49.517Z,10.09
2018-12-07T13:09:21.651Z,10.54
2018-12-07T13:11:57.871Z,10.36
2018-12-07T13:14:30.776Z,10.28
2018-12-07T13:17:07.019Z,10.13
2018-12-07T13:19:43.414Z,10.46
2018-12-07T13:22:13.627Z,10.40
2018-12-07T13:24:45.852Z,10.40
2018-12-07T13:27:18.306Z,10.77
2018-12-07T13:29:54.652Z,10.72
2018-12-07T13:32:26.705Z,10.76
2018-12-07T13:34:59.024Z,10.72
2018-12-07T13:37:31.177Z,11.06
2018-12-07T13:40:01.556Z,11.66
2018-12-07T13:42:34.566Z,11.93
2018-12-07T13:45:08.436Z,11.70
2018-12-07T13:47:41.416Z,12.01
2018-12-07T13:50:19.119Z,12.10
2018-12-07T13:52:51.822Z,12.16
2018-12-07T13:55:24.224Z,12.20
2018-12-07T13:58:02.436Z,12.04
2018-12-07T14:00:38.536Z,12.00
2018-12-07T14:03:10.672Z,11.66
2018-12-07T14:05:41.119Z,11.51
2018-12-07T14:08:11.503Z,11.12
2018-12-07T14:10:48.384Z,10.71
2018-12-07T14:13:19.591Z,10.61
2018-12-07T14:15:57.323Z,10.56
2018-12-07T14:18:28.445Z,10.23
2018-12-07T14:21:04.770Z,10.08
2018-12-07T14:23:35.931Z,9.88
2018-12-07T14:26:08.487Z,9.78
2018-12-07T14:28:41.394Z,9.83
2018-12-07T14:31:13.786Z,9.54
2018-12-07T14:33:46.076Z,9.23
2018-12-07T14:36:18.240Z,9.00
2018-12-07T14:38:50.489Z,8.93
2018-12-07T14:41:23.604Z,8.70
2018-12-07T14:43:59.988Z,8.48
2018-12-07T14:46:31.132Z,8.33
2018-12-07T14:49:02.130Z,8.23
2018-12-07T14:51:35.332Z,8.07
2018-12-07T14:54:08.321Z,8.03
2018-12-07T14:56:41.433Z,7.87
2018-12-07T14:59:17.669Z,7.88
2018-12-07T15:01:50.078Z,7.88
2018-12-07T15:04:22.681Z,7.60
2018-12-07T15:06:59.010Z,7.55
2018-12-07T15:09:32.119Z,7.57
2018-12-07T15:12:08.444Z,7.56
2018-12-07T15:14:44.727Z,7.35
2018-12-07T15:17:15.730Z,7.08
2018-12-07T15:19:48.164Z,7.08
2018-12-07T15:22:25.182Z,6.99
2018-12-07T15:24:59.440Z,6.89
2018-12-07T15:27:30.105Z,6.60
2018-12-07T15:30:02.435Z,6.45
2018-12-07T15:32:34.761Z,6.41
2018-12-07T15:35:08.678Z,6.41
2018-12-07T15:37:41.556Z,6.36
2018-12-07T15:40:14.515Z,6.24
2018-12-07T15:42:51.279Z,6.07
2018-12-07T15:45:28.685Z,5.77
2018-12-07T15:48:01.565Z,5.73
2018-12-07T15:50:33.784Z,5.71
2018-12-07T15:53:06.255Z,5.74
2018-12-07T15:55:39.073Z,5.72
2018-12-07T15:58:12.697Z,5.66
2018-12-07T16:00:45.512Z,5.59
2018-12-07T16:03:22.736Z,5.49
2018-12-07T16:05:55.087Z,5.36
2018-12-07T16:08:31.402Z,5.33
2018-12-07T16:11:03.554Z,5.22
2018-12-07T16:13:36.566Z,5.14
2018-12-07T16:16:07.384Z,4.99
2018-12-07T16:18:43.844Z,4.91
2018-12-07T16:21:16.641Z,4.94
2018-12-07T16:23:48.819Z,4.90
2018-12-07T16:26:20.996Z,4.88
2018-12-07T16:28:53.135Z,4.85
2018-12-07T16:31:25.215Z,4.74
2018-12-07T16:33:58.458Z,4.55
2018-12-07T16:36:31.718Z,4.56
2018-12-07T16:39:02.396Z,4.62
2018-12-07T16:41:34.613Z,4.56
2018-12-07T16:44:07.628Z,4.55
2018-12-07T16:46:39.785Z,4.54
2018-12-07T16:49:13.031Z,4.53
2018-12-07T16:51:46.040Z,4.49
2018-12-07T16:54:18.362Z,4.43
2018-12-07T16:56:54.637Z,4.28
2018-12-07T16:59:25.734Z,4.09
2018-12-07T17:02:03.053Z,4.20
2018-12-07T17:04:40.246Z,4.19
2018-12-07T17:07:13.265Z,4.18
2018-12-07T17:09:49.409Z,4.15
2018-12-07T17:12:25.727Z,4.13
2018-12-07T17:14:59.009Z,4.01
2018-12-07T17:17:32.210Z,3.97
2018-12-07T17:20:03.405Z,3.94
2018-12-07T17:22:36.318Z,3.85
2018-12-07T17:25:10.244Z,3.87
2018-12-07T17:27:43.306Z,3.86
2018-12-07T17:30:16.343Z,3.83
2018-12-07T17:32:49.491Z,3.79
2018-12-07T17:35:26.225Z,3.78
2018-12-07T17:37:57.219Z,3.67
2018-12-07T17:40:29.773Z,3.70
2018-12-07T17:43:02.640Z,3.59
2018-12-07T17:45:34.779Z,3.54
2018-12-07T17:48:10.972Z,3.48
2018-12-07T17:50:44.065Z,3.48
2018-12-07T17:53:16.386Z,3.50
2018-12-07T17:55:47.386Z,3.58
2018-12-07T17:58:20.133Z,3.70
2018-12-07T18:00:53.017Z,3.82
2018-12-07T18:03:25.115Z,3.91
2018-12-07T18:06:03.759Z,3.94
2018-12-07T18:08:37.531Z,3.92
2018-12-07T18:11:11.988Z,3.89
2018-12-07T18:13:45.110Z,3.96
2018-12-07T18:16:22.282Z,3.93
2018-12-07T18:18:57.240Z,3.86
2018-12-07T18:21:29.642Z,3.83
2018-12-07T18:24:07.737Z,3.86
2018-12-07T18:26:41.903Z,4.03
2018-12-07T18:29:15.893Z,4.14
2018-12-07T18:31:48.395Z,4.04
2018-12-07T18:34:21.325Z,4.02
2018-12-07T18:36:54.577Z,4.00
2018-12-07T18:39:27.712Z,4.07
2018-12-07T18:42:00.975Z,4.13
2018-12-07T18:44:34.078Z,3.96
2018-12-07T18:47:10.199Z,3.98
2018-12-07T18:49:40.490Z,3.96
2018-12-07T18:52:13.221Z,3.90
2018-12-07T18:54:49.657Z,3.87
2018-12-07T18:57:22.659Z,3.82
2018-12-07T18:59:56.021Z,3.92
2018-12-07T19:02:28.924Z,3.96
2018-12-07T19:05:01.703Z,3.96
2018-12-07T19:07:38.385Z,3.98
2018-12-07T19:10:11.778Z,3.98
2018-12-07T19:12:45.700Z,3.99
2018-12-07T19:15:22.139Z,4.04
2018-12-07T19:17:53.164Z,4.10
2018-12-07T19:20:26.031Z,4.05
2018-12-07T19:22:59.002Z,4.10
2018-12-07T19:25:32.019Z,4.09
2018-12-07T19:28:09.264Z,4.07
2018-12-07T19:30:42.046Z,3.97
2018-12-07T19:33:15.424Z,3.97
2018-12-07T19:35:48.313Z,3.94
2018-12-07T19:38:21.046Z,3.99
2018-12-07T19:40:51.983Z,3.95
2018-12-07T19:43:25.209Z,4.15
2018-12-07T19:45:57.449Z,4.18
2018-12-07T19:48:28.415Z,4.18
2018-12-07T19:51:05.294Z,4.22
2018-12-07T19:53:37.845Z,4.21
2018-12-07T19:56:13.968Z,4.22
2018-12-07T19:58:47.294Z,4.21
2018-12-07T20:01:20.285Z,4.22
2018-12-07T20:03:50.789Z,4.17
2018-12-07T20:06:23.791Z,4.15
2018-12-07T20:13:59.063Z,4.08
2018-12-07T20:16:31.173Z,4.10
2018-12-07T20:19:07.395Z,4.09
2018-12-07T20:21:43.653Z,4.14
2018-12-07T20:24:16.090Z,4.29
2018-12-07T20:26:48.592Z,4.21
2018-12-07T20:29:21.566Z,4.22
2018-12-07T20:31:54.911Z,4.17
2018-12-07T20:34:27.830Z,4.13
2018-12-07T20:37:00.586Z,4.17
2018-12-07T20:39:31.650Z,4.18
2018-12-07T20:42:04.703Z,4.26
2018-12-07T20:44:37.078Z,4.26
2018-12-07T20:47:10.331Z,4.30
2018-12-07T20:49:43.310Z,4.35
2018-12-07T20:52:15.548Z,4.30
2018-12-07T20:54:48.882Z,4.15
2018-12-07T20:57:21.941Z,4.12
2018-12-07T20:59:56.053Z,4.17
2018-12-07T21:02:29.010Z,4.13
2018-12-07T21:05:32.307Z,4.32
2018-12-07T21:11:38.718Z,4.36
2018-12-07T21:14:34.216Z,4.28
2018-12-07T21:17:30.259Z,4.39
2018-12-07T21:20:27.217Z,4.34
2018-12-07T21:23:00.288Z,4.34
2018-12-07T21:25:30.729Z,4.31
2018-12-07T21:28:03.689Z,4.33
2018-12-07T21:31:01.358Z,4.35
2018-12-07T21:35:23.598Z,4.36
2018-12-07T21:37:59.789Z,4.36
2018-12-07T21:40:32.822Z,4.39
2018-12-07T21:43:05.564Z,4.31
2018-12-07T21:45:36.730Z,4.26
2018-12-07T21:48:28.948Z,4.24
2018-12-07T21:51:43.466Z,4.22
2018-12-07T21:54:16.567Z,4.25
2018-12-07T21:56:49.554Z,4.27
2018-12-07T21:59:22.802Z,4.30
2018-12-07T22:01:59.610Z,4.40
2018-12-07T22:04:32.877Z,4.48
2018-12-07T22:07:06.061Z,4.47
2018-12-07T22:09:38.871Z,4.47
2018-12-07T22:12:15.171Z,4.46
2018-12-07T22:14:53.443Z,4.43
2018-12-07T22:17:26.350Z,4.47
2018-12-07T22:19:58.588Z,4.42
2018-12-07T22:22:29.659Z,4.40
2018-12-07T22:25:02.123Z,4.47
2018-12-07T22:27:34.458Z,4.50
2018-12-07T22:30:11.154Z,4.58
2018-12-07T22:32:43.907Z,4.61
2018-12-07T22:35:16.300Z,4.58
2018-12-07T22:37:49.498Z,4.57
2018-12-07T22:40:25.815Z,4.60
2018-12-07T22:42:57.973Z,4.58
2018-12-07T22:45:31.531Z,4.59
2018-12-07T22:48:04.208Z,4.62
2018-12-07T22:50:41.180Z,4.55
2018-12-07T22:53:13.722Z,4.59
2018-12-07T22:55:46.292Z,4.70
2018-12-07T22:58:18.391Z,4.71
2018-12-07T23:00:51.242Z,4.71
2018-12-07T23:03:22.000Z,4.65
2018-12-07T23:05:54.185Z,4.76
2018-12-07T23:08:27.119Z,4.57
2018-12-07T23:10:59.613Z,4.64
2018-12-07T23:13:35.856Z,4.65
2018-12-07T23:23:34.425Z,4.96
2018-12-07T23:26:06.601Z,4.93
2018-12-07T23:28:40.432Z,4.83
2018-12-07T23:31:10.765Z,4.99
2018-12-07T23:33:42.952Z,5.02
2018-12-07T23:36:15.835Z,4.99
2018-12-07T23:38:48.210Z,4.96
2018-12-07T23:41:24.569Z,4.91
2018-12-07T23:44:00.681Z,4.87
2018-12-07T23:46:32.910Z,4.88
2018-12-07T23:49:05.323Z,4.77
2018-12-07T23:51:41.510Z,4.74
2018-12-07T23:54:13.592Z,4.72
2018-12-07T23:56:45.702Z,4.65
2018-12-07T23:59:17.986Z,4.64
